sensor_id;sensor_type;location;lat;lon;timestamp;P1;durP1;ratioP1;P2;durP2;ratioP2
11334;SDS011;5722;42.620;23.374;2023-06-10T00:00:35;13.68;;;11.25;;
11334;SDS011;5722;42.620;23.374;2023-06-10T00:03:04;14.75;;;11.63;;
11334;SDS011;5722;42.620;23.374;2023-06-10T00:05:32;11.57;;;10.45;;
11334;SDS011;5722;42.620;23.374;2023-06-10T00:08:00;11.07;;;9.98;;
11334;SDS011;5722;42.620;23.374;2023-06-10T00:10:42;10.63;;;9.30;;
11334;SDS011;5722;42.620;23.374;2023-06-10T00:13:09;11.77;;;9.57;;
11334;SDS011;5722;42.620;23.374;2023-06-10T00:15:41;9.75;;;8.77;;
11334;SDS011;5722;42.620;23.374;2023-06-10T00:18:13;9.90;;;8.95;;
11334;SDS011;5722;42.620;23.374;2023-06-10T00:20:42;12.35;;;9.18;;
11334;SDS011;5722;42.620;23.374;2023-06-10T00:23:17;9.75;;;8.52;;
11334;SDS011;5722;42.620;23.374;2023-06-10T00:25:56;9.45;;;8.55;;
11334;SDS011;5722;42.620;23.374;2023-06-10T00:28:23;12.07;;;9.27;;
11334;SDS011;5722;42.620;23.374;2023-06-10T00:30:51;14.48;;;10.80;;
11334;SDS011;5722;42.620;23.374;2023-06-10T00:33:32;16.25;;;11.90;;
11334;SDS011;5722;42.620;23.374;2023-06-10T00:35:59;12.98;;;11.68;;
11334;SDS011;5722;42.620;23.374;2023-06-10T00:38:26;14.98;;;12.98;;
11334;SDS011;5722;42.620;23.374;2023-06-10T00:41:01;16.83;;;13.05;;
11334;SDS011;5722;42.620;23.374;2023-06-10T00:43:28;17.73;;;13.18;;
11334;SDS011;5722;42.620;23.374;2023-06-10T00:45:56;16.20;;;11.35;;
11334;SDS011;5722;42.620;23.374;2023-06-10T00:48:26;13.50;;;11.45;;
11334;SDS011;5722;42.620;23.374;2023-06-10T00:50:54;15.98;;;14.32;;
11334;SDS011;5722;42.620;23.374;2023-06-10T00:53:23;20.60;;;14.27;;
11334;SDS011;5722;42.620;23.374;2023-06-10T00:55:51;16.63;;;14.93;;
11334;SDS011;5722;42.620;23.374;2023-06-10T00:58:23;18.17;;;14.05;;
11334;SDS011;5722;42.620;23.374;2023-06-10T01:00:50;17.92;;;15.43;;
11334;SDS011;5722;42.620;23.374;2023-06-10T01:03:21;15.75;;;12.95;;
11334;SDS011;5722;42.620;23.374;2023-06-10T01:05:53;14.25;;;12.85;;
11334;SDS011;5722;42.620;23.374;2023-06-10T01:08:25;14.27;;;12.85;;
11334;SDS011;5722;42.620;23.374;2023-06-10T01:10:57;16.65;;;13.85;;
11334;SDS011;5722;42.620;23.374;2023-06-10T01:13:38;17.17;;;13.07;;
11334;SDS011;5722;42.620;23.374;2023-06-10T01:16:08;16.38;;;14.68;;
11334;SDS011;5722;42.620;23.374;2023-06-10T01:18:37;15.73;;;13.43;;
11334;SDS011;5722;42.620;23.374;2023-06-10T01:21:04;15.45;;;13.77;;
11334;SDS011;5722;42.620;23.374;2023-06-10T01:23:34;16.90;;;13.93;;
11334;SDS011;5722;42.620;23.374;2023-06-10T01:26:02;14.55;;;13.05;;
11334;SDS011;5722;42.620;23.374;2023-06-10T01:28:35;14.82;;;13.20;;
11334;SDS011;5722;42.620;23.374;2023-06-10T01:31:06;16.58;;;13.35;;
11334;SDS011;5722;42.620;23.374;2023-06-10T01:33:38;14.38;;;12.98;;
11334;SDS011;5722;42.620;23.374;2023-06-10T01:36:10;17.25;;;13.38;;
11334;SDS011;5722;42.620;23.374;2023-06-10T01:38:42;13.73;;;12.43;;
11334;SDS011;5722;42.620;23.374;2023-06-10T01:41:12;15.07;;;13.32;;
11334;SDS011;5722;42.620;23.374;2023-06-10T01:43:42;14.85;;;13.15;;
11334;SDS011;5722;42.620;23.374;2023-06-10T01:46:11;14.38;;;12.85;;
11334;SDS011;5722;42.620;23.374;2023-06-10T01:48:41;14.63;;;13.18;;
11334;SDS011;5722;42.620;23.374;2023-06-10T01:51:11;18.05;;;13.75;;
11334;SDS011;5722;42.620;23.374;2023-06-10T01:53:43;15.05;;;13.55;;
11334;SDS011;5722;42.620;23.374;2023-06-10T01:56:10;19.85;;;14.10;;
11334;SDS011;5722;42.620;23.374;2023-06-10T01:58:42;16.00;;;14.43;;
11334;SDS011;5722;42.620;23.374;2023-06-10T02:01:09;20.58;;;15.35;;
11334;SDS011;5722;42.620;23.374;2023-06-10T02:03:49;16.35;;;14.20;;
11334;SDS011;5722;42.620;23.374;2023-06-10T02:06:22;16.27;;;14.27;;
11334;SDS011;5722;42.620;23.374;2023-06-10T02:08:51;20.95;;;14.55;;
11334;SDS011;5722;42.620;23.374;2023-06-10T02:11:23;18.55;;;15.43;;
11334;SDS011;5722;42.620;23.374;2023-06-10T02:13:53;19.42;;;15.25;;
11334;SDS011;5722;42.620;23.374;2023-06-10T02:16:20;17.20;;;14.25;;
11334;SDS011;5722;42.620;23.374;2023-06-10T02:19:01;19.98;;;15.52;;
11334;SDS011;5722;42.620;23.374;2023-06-10T02:21:33;16.63;;;15.02;;
11334;SDS011;5722;42.620;23.374;2023-06-10T02:24:07;17.13;;;14.68;;
11334;SDS011;5722;42.620;23.374;2023-06-10T02:26:34;17.55;;;14.18;;
11334;SDS011;5722;42.620;23.374;2023-06-10T02:29:01;15.35;;;13.85;;
11334;SDS011;5722;42.620;23.374;2023-06-10T02:31:28;18.92;;;13.93;;
11334;SDS011;5722;42.620;23.374;2023-06-10T02:33:58;14.40;;;13.07;;
11334;SDS011;5722;42.620;23.374;2023-06-10T02:36:32;14.00;;;12.57;;
11334;SDS011;5722;42.620;23.374;2023-06-10T02:39:08;13.80;;;12.23;;
11334;SDS011;5722;42.620;23.374;2023-06-10T02:41:37;14.32;;;12.73;;
11334;SDS011;5722;42.620;23.374;2023-06-10T02:44:05;13.73;;;11.95;;
11334;SDS011;5722;42.620;23.374;2023-06-10T02:46:40;13.68;;;11.90;;
11334;SDS011;5722;42.620;23.374;2023-06-10T02:49:07;13.20;;;11.60;;
11334;SDS011;5722;42.620;23.374;2023-06-10T02:51:36;15.68;;;11.82;;
11334;SDS011;5722;42.620;23.374;2023-06-10T02:54:16;12.65;;;11.52;;
11334;SDS011;5722;42.620;23.374;2023-06-10T02:56:44;12.75;;;11.23;;
11334;SDS011;5722;42.620;23.374;2023-06-10T02:59:13;13.98;;;11.45;;
11334;SDS011;5722;42.620;23.374;2023-06-10T03:01:40;17.95;;;11.23;;
11334;SDS011;5722;42.620;23.374;2023-06-10T03:04:09;11.50;;;10.32;;
11334;SDS011;5722;42.620;23.374;2023-06-10T03:06:40;11.38;;;10.27;;
11334;SDS011;5722;42.620;23.374;2023-06-10T03:09:12;10.75;;;9.65;;
11334;SDS011;5722;42.620;23.374;2023-06-10T03:14:31;13.02;;;10.32;;
11334;SDS011;5722;42.620;23.374;2023-06-10T03:17:03;12.57;;;10.23;;
11334;SDS011;5722;42.620;23.374;2023-06-10T03:19:32;11.30;;;9.50;;
11334;SDS011;5722;42.620;23.374;2023-06-10T03:22:07;10.80;;;9.35;;
11334;SDS011;5722;42.620;23.374;2023-06-10T03:24:35;10.32;;;8.80;;
11334;SDS011;5722;42.620;23.374;2023-06-10T03:27:05;9.75;;;8.85;;
11334;SDS011;5722;42.620;23.374;2023-06-10T03:29:35;11.38;;;8.35;;
11334;SDS011;5722;42.620;23.374;2023-06-10T03:32:03;10.57;;;8.20;;
11334;SDS011;5722;42.620;23.374;2023-06-10T03:34:30;9.20;;;8.30;;
11334;SDS011;5722;42.620;23.374;2023-06-10T03:37:00;11.63;;;8.45;;
11334;SDS011;5722;42.620;23.374;2023-06-10T03:39:33;9.50;;;8.52;;
11334;SDS011;5722;42.620;23.374;2023-06-10T03:41:59;9.75;;;8.75;;
11334;SDS011;5722;42.620;23.374;2023-06-10T03:44:27;11.82;;;8.30;;
11334;SDS011;5722;42.620;23.374;2023-06-10T03:46:57;11.32;;;9.35;;
11334;SDS011;5722;42.620;23.374;2023-06-10T03:49:25;10.35;;;9.27;;
11334;SDS011;5722;42.620;23.374;2023-06-10T03:51:54;13.93;;;9.95;;
11334;SDS011;5722;42.620;23.374;2023-06-10T03:54:30;10.52;;;9.40;;
11334;SDS011;5722;42.620;23.374;2023-06-10T03:57:01;14.50;;;10.50;;
11334;SDS011;5722;42.620;23.374;2023-06-10T03:59:31;13.07;;;9.98;;
11334;SDS011;5722;42.620;23.374;2023-06-10T04:19:04;12.20;;;10.90;;
11334;SDS011;5722;42.620;23.374;2023-06-10T04:21:35;10.35;;;9.40;;
11334;SDS011;5722;42.620;23.374;2023-06-10T04:24:24;12.07;;;9.48;;
11334;SDS011;5722;42.620;23.374;2023-06-10T04:26:56;9.75;;;8.82;;
11334;SDS011;5722;42.620;23.374;2023-06-10T04:29:25;12.52;;;10.18;;
11334;SDS011;5722;42.620;23.374;2023-06-10T04:31:56;14.05;;;12.63;;
11334;SDS011;5722;42.620;23.374;2023-06-10T04:37:12;14.52;;;12.98;;
11334;SDS011;5722;42.620;23.374;2023-06-10T04:39:41;16.23;;;13.65;;
11334;SDS011;5722;42.620;23.374;2023-06-10T04:42:22;15.13;;;13.20;;
11334;SDS011;5722;42.620;23.374;2023-06-10T04:45:12;16.75;;;14.43;;
11334;SDS011;5722;42.620;23.374;2023-06-10T04:47:56;16.65;;;14.43;;
11334;SDS011;5722;42.620;23.374;2023-06-10T04:50:58;15.98;;;14.38;;
11334;SDS011;5722;42.620;23.374;2023-06-10T04:58:58;15.98;;;14.38;;
11334;SDS011;5722;42.620;23.374;2023-06-10T05:01:33;16.65;;;13.27;;
11334;SDS011;5722;42.620;23.374;2023-06-10T05:04:01;15.25;;;13.82;;
11334;SDS011;5722;42.620;23.374;2023-06-10T05:06:32;14.43;;;12.93;;
11334;SDS011;5722;42.620;23.374;2023-06-10T05:09:06;13.65;;;12.35;;
11334;SDS011;5722;42.620;23.374;2023-06-10T05:11:44;14.40;;;12.98;;
11334;SDS011;5722;42.620;23.374;2023-06-10T05:14:27;16.52;;;12.30;;
11334;SDS011;5722;42.620;23.374;2023-06-10T05:16:55;12.52;;;11.23;;
11334;SDS011;5722;42.620;23.374;2023-06-10T05:19:32;15.00;;;11.52;;
11334;SDS011;5722;42.620;23.374;2023-06-10T05:22:03;12.82;;;11.00;;
11334;SDS011;5722;42.620;23.374;2023-06-10T05:24:32;11.88;;;10.73;;
11334;SDS011;5722;42.620;23.374;2023-06-10T05:27:14;12.55;;;11.25;;
11334;SDS011;5722;42.620;23.374;2023-06-10T05:29:44;12.40;;;10.50;;
11334;SDS011;5722;42.620;23.374;2023-06-10T05:32:14;11.93;;;10.55;;
11334;SDS011;5722;42.620;23.374;2023-06-10T05:34:49;11.63;;;10.35;;
11334;SDS011;5722;42.620;23.374;2023-06-10T05:37:21;13.52;;;10.70;;
11334;SDS011;5722;42.620;23.374;2023-06-10T05:39:52;12.32;;;11.00;;
11334;SDS011;5722;42.620;23.374;2023-06-10T05:42:34;13.02;;;10.40;;
11334;SDS011;5722;42.620;23.374;2023-06-10T05:48:00;12.38;;;11.05;;
11334;SDS011;5722;42.620;23.374;2023-06-10T05:50:28;13.32;;;11.35;;
11334;SDS011;5722;42.620;23.374;2023-06-10T05:56:26;13.90;;;10.95;;
11334;SDS011;5722;42.620;23.374;2023-06-10T05:59:14;11.63;;;10.55;;
11334;SDS011;5722;42.620;23.374;2023-06-10T06:05:00;12.73;;;11.48;;
11334;SDS011;5722;42.620;23.374;2023-06-10T06:07:48;12.55;;;11.15;;
11334;SDS011;5722;42.620;23.374;2023-06-10T06:10:40;14.20;;;11.75;;
11334;SDS011;5722;42.620;23.374;2023-06-10T06:16:10;14.23;;;12.27;;
11334;SDS011;5722;42.620;23.374;2023-06-10T06:18:53;13.73;;;12.27;;
11334;SDS011;5722;42.620;23.374;2023-06-10T06:21:24;15.63;;;13.23;;
11334;SDS011;5722;42.620;23.374;2023-06-10T06:23:52;15.88;;;14.25;;
11334;SDS011;5722;42.620;23.374;2023-06-10T06:26:22;15.90;;;14.30;;
11334;SDS011;5722;42.620;23.374;2023-06-10T06:28:54;15.93;;;13.00;;
11334;SDS011;5722;42.620;23.374;2023-06-10T06:31:22;16.05;;;13.02;;
11334;SDS011;5722;42.620;23.374;2023-06-10T06:34:05;16.20;;;12.90;;
11334;SDS011;5722;42.620;23.374;2023-06-10T06:39:33;12.90;;;11.63;;
11334;SDS011;5722;42.620;23.374;2023-06-10T06:42:04;14.20;;;12.80;;
11334;SDS011;5722;42.620;23.374;2023-06-10T06:44:37;15.88;;;13.13;;
11334;SDS011;5722;42.620;23.374;2023-06-10T06:47:13;16.63;;;13.30;;
11334;SDS011;5722;42.620;23.374;2023-06-10T06:50:02;14.25;;;12.30;;
11334;SDS011;5722;42.620;23.374;2023-06-10T06:52:40;15.15;;;13.10;;
11334;SDS011;5722;42.620;23.374;2023-06-10T07:01:09;15.50;;;13.75;;
11334;SDS011;5722;42.620;23.374;2023-06-10T07:03:39;18.92;;;14.05;;
11334;SDS011;5722;42.620;23.374;2023-06-10T07:06:08;15.00;;;13.68;;
11334;SDS011;5722;42.620;23.374;2023-06-10T07:08:59;16.45;;;13.57;;
11334;SDS011;5722;42.620;23.374;2023-06-10T07:11:27;14.43;;;12.98;;
11334;SDS011;5722;42.620;23.374;2023-06-10T07:14:08;13.52;;;11.90;;
11334;SDS011;5722;42.620;23.374;2023-06-10T07:36:40;8.40;;;6.50;;
11334;SDS011;5722;42.620;23.374;2023-06-10T07:39:22;7.22;;;6.53;;
11334;SDS011;5722;42.620;23.374;2023-06-10T07:42:04;7.53;;;6.43;;
11334;SDS011;5722;42.620;23.374;2023-06-10T07:45:09;9.10;;;6.50;;
11334;SDS011;5722;42.620;23.374;2023-06-10T07:47:50;7.40;;;6.72;;
11334;SDS011;5722;42.620;23.374;2023-06-10T07:50:21;9.57;;;6.93;;
11334;SDS011;5722;42.620;23.374;2023-06-10T07:53:05;11.20;;;6.78;;
11334;SDS011;5722;42.620;23.374;2023-06-10T07:55:37;10.32;;;6.43;;
11334;SDS011;5722;42.620;23.374;2023-06-10T07:58:19;10.80;;;6.18;;
11334;SDS011;5722;42.620;23.374;2023-06-10T08:01:09;16.30;;;6.82;;
11334;SDS011;5722;42.620;23.374;2023-06-10T08:03:50;13.20;;;6.47;;
11334;SDS011;5722;42.620;23.374;2023-06-10T08:06:36;8.18;;;6.30;;
11334;SDS011;5722;42.620;23.374;2023-06-10T08:12:29;8.90;;;5.72;;
11334;SDS011;5722;42.620;23.374;2023-06-10T08:15:03;7.03;;;5.30;;
11334;SDS011;5722;42.620;23.374;2023-06-10T08:17:52;9.30;;;5.72;;
11334;SDS011;5722;42.620;23.374;2023-06-10T08:20:29;7.88;;;5.60;;
11334;SDS011;5722;42.620;23.374;2023-06-10T08:23:10;10.50;;;5.15;;
11334;SDS011;5722;42.620;23.374;2023-06-10T08:25:53;29.55;;;5.85;;
11334;SDS011;5722;42.620;23.374;2023-06-10T08:34:19;12.77;;;4.35;;
11334;SDS011;5722;42.620;23.374;2023-06-10T08:36:50;7.50;;;4.53;;
11334;SDS011;5722;42.620;23.374;2023-06-10T08:39:43;7.32;;;5.60;;
11334;SDS011;5722;42.620;23.374;2023-06-10T08:42:38;14.20;;;4.82;;
11334;SDS011;5722;42.620;23.374;2023-06-10T08:45:16;5.47;;;4.38;;
11334;SDS011;5722;42.620;23.374;2023-06-10T08:48:17;4.88;;;3.95;;
11334;SDS011;5722;42.620;23.374;2023-06-10T09:11:29;3.97;;;3.00;;
11334;SDS011;5722;42.620;23.374;2023-06-10T09:14:10;4.72;;;3.28;;
11334;SDS011;5722;42.620;23.374;2023-06-10T09:16:55;5.72;;;3.35;;
11334;SDS011;5722;42.620;23.374;2023-06-10T09:19:23;4.20;;;2.42;;
11334;SDS011;5722;42.620;23.374;2023-06-10T09:22:13;3.72;;;3.33;;
11334;SDS011;5722;42.620;23.374;2023-06-10T09:25:02;4.80;;;3.20;;
11334;SDS011;5722;42.620;23.374;2023-06-10T09:45:07;3.85;;;2.67;;
11334;SDS011;5722;42.620;23.374;2023-06-10T09:47:37;3.00;;;2.80;;
11334;SDS011;5722;42.620;23.374;2023-06-10T09:50:09;5.75;;;3.72;;
11334;SDS011;5722;42.620;23.374;2023-06-10T09:52:55;5.90;;;3.58;;
11334;SDS011;5722;42.620;23.374;2023-06-10T09:55:33;3.75;;;3.15;;
11334;SDS011;5722;42.620;23.374;2023-06-10T09:58:18;3.88;;;3.25;;
11334;SDS011;5722;42.620;23.374;2023-06-10T10:01:07;4.45;;;2.58;;
11334;SDS011;5722;42.620;23.374;2023-06-10T10:04:09;4.55;;;3.00;;
11334;SDS011;5722;42.620;23.374;2023-06-10T10:06:50;6.80;;;3.88;;
11334;SDS011;5722;42.620;23.374;2023-06-10T10:09:33;5.35;;;3.13;;
11334;SDS011;5722;42.620;23.374;2023-06-10T10:12:16;3.85;;;3.03;;
11334;SDS011;5722;42.620;23.374;2023-06-10T10:14:51;4.43;;;3.15;;
11334;SDS011;5722;42.620;23.374;2023-06-10T10:26:21;3.88;;;2.90;;
11334;SDS011;5722;42.620;23.374;2023-06-10T10:29:19;4.97;;;3.38;;
11334;SDS011;5722;42.620;23.374;2023-06-10T10:32:00;5.40;;;3.20;;
11334;SDS011;5722;42.620;23.374;2023-06-10T10:35:00;3.28;;;2.97;;
11334;SDS011;5722;42.620;23.374;2023-06-10T10:38:01;3.75;;;2.90;;
11334;SDS011;5722;42.620;23.374;2023-06-10T10:40:30;6.25;;;3.08;;
11334;SDS011;5722;42.620;23.374;2023-06-10T10:54:39;3.92;;;2.85;;
11334;SDS011;5722;42.620;23.374;2023-06-10T10:57:17;2.50;;;2.30;;
11334;SDS011;5722;42.620;23.374;2023-06-10T10:59:52;3.38;;;2.67;;
11334;SDS011;5722;42.620;23.374;2023-06-10T11:02:35;3.22;;;2.50;;
11334;SDS011;5722;42.620;23.374;2023-06-10T11:05:31;3.17;;;2.55;;
11334;SDS011;5722;42.620;23.374;2023-06-10T11:08:45;5.90;;;2.83;;
11334;SDS011;5722;42.620;23.374;2023-06-10T11:25:50;4.15;;;2.72;;
11334;SDS011;5722;42.620;23.374;2023-06-10T11:28:31;5.47;;;3.17;;
11334;SDS011;5722;42.620;23.374;2023-06-10T11:31:18;6.10;;;3.50;;
11334;SDS011;5722;42.620;23.374;2023-06-10T11:34:01;6.40;;;2.97;;
11334;SDS011;5722;42.620;23.374;2023-06-10T11:36:36;3.40;;;2.90;;
11334;SDS011;5722;42.620;23.374;2023-06-10T11:39:20;4.43;;;2.88;;
11334;SDS011;5722;42.620;23.374;2023-06-10T11:45:03;4.32;;;3.03;;
11334;SDS011;5722;42.620;23.374;2023-06-10T11:47:56;3.13;;;2.85;;
11334;SDS011;5722;42.620;23.374;2023-06-10T11:50:37;5.22;;;2.90;;
11334;SDS011;5722;42.620;23.374;2023-06-10T11:53:20;5.63;;;3.00;;
11334;SDS011;5722;42.620;23.374;2023-06-10T11:56:01;3.30;;;2.97;;
11334;SDS011;5722;42.620;23.374;2023-06-10T11:58:51;4.47;;;2.63;;
11334;SDS011;5722;42.620;23.374;2023-06-10T12:01:33;3.67;;;2.70;;
11334;SDS011;5722;42.620;23.374;2023-06-10T12:04:02;6.65;;;2.90;;
11334;SDS011;5722;42.620;23.374;2023-06-10T12:06:51;2.88;;;2.55;;
11334;SDS011;5722;42.620;23.374;2023-06-10T12:09:36;6.78;;;3.00;;
11334;SDS011;5722;42.620;23.374;2023-06-10T12:12:17;4.22;;;2.60;;
11334;SDS011;5722;42.620;23.374;2023-06-10T12:14:51;4.03;;;2.78;;
11334;SDS011;5722;42.620;23.374;2023-06-10T12:23:09;5.05;;;2.90;;
11334;SDS011;5722;42.620;23.374;2023-06-10T12:25:50;4.50;;;2.80;;
11334;SDS011;5722;42.620;23.374;2023-06-10T12:28:21;4.32;;;2.40;;
11334;SDS011;5722;42.620;23.374;2023-06-10T12:31:06;4.78;;;3.05;;
11334;SDS011;5722;42.620;23.374;2023-06-10T12:33:40;3.03;;;2.72;;
11334;SDS011;5722;42.620;23.374;2023-06-10T12:42:34;3.55;;;2.90;;
11334;SDS011;5722;42.620;23.374;2023-06-10T12:45:03;3.30;;;2.90;;
11334;SDS011;5722;42.620;23.374;2023-06-10T12:47:32;3.75;;;3.10;;
11334;SDS011;5722;42.620;23.374;2023-06-10T12:50:05;4.07;;;2.50;;
11334;SDS011;5722;42.620;23.374;2023-06-10T12:55:42;3.50;;;2.80;;
11334;SDS011;5722;42.620;23.374;2023-06-10T13:13:36;8.52;;;3.65;;
11334;SDS011;5722;42.620;23.374;2023-06-10T13:16:11;4.85;;;2.78;;
11334;SDS011;5722;42.620;23.374;2023-06-10T13:18:41;4.03;;;2.70;;
11334;SDS011;5722;42.620;23.374;2023-06-10T13:21:11;3.15;;;2.70;;
11334;SDS011;5722;42.620;23.374;2023-06-10T13:23:53;5.78;;;2.63;;
11334;SDS011;5722;42.620;23.374;2023-06-10T13:26:34;4.10;;;3.20;;
11334;SDS011;5722;42.620;23.374;2023-06-10T13:29:23;4.07;;;2.65;;
11334;SDS011;5722;42.620;23.374;2023-06-10T13:31:58;3.20;;;2.90;;
11334;SDS011;5722;42.620;23.374;2023-06-10T13:34:53;4.80;;;3.20;;
11334;SDS011;5722;42.620;23.374;2023-06-10T13:37:23;3.28;;;2.85;;
11334;SDS011;5722;42.620;23.374;2023-06-10T13:40:00;5.07;;;3.00;;
11334;SDS011;5722;42.620;23.374;2023-06-10T13:43:03;5.78;;;3.30;;
11334;SDS011;5722;42.620;23.374;2023-06-10T15:09:41;5.90;;;4.38;;
11334;SDS011;5722;42.620;23.374;2023-06-10T15:12:13;6.03;;;4.15;;
11334;SDS011;5722;42.620;23.374;2023-06-10T15:14:49;6.30;;;4.20;;
11334;SDS011;5722;42.620;23.374;2023-06-10T15:17:20;5.68;;;4.30;;
11334;SDS011;5722;42.620;23.374;2023-06-10T15:19:53;5.85;;;4.43;;
11334;SDS011;5722;42.620;23.374;2023-06-10T15:22:36;4.75;;;4.10;;
11334;SDS011;5722;42.620;23.374;2023-06-10T15:25:10;8.60;;;4.35;;
11334;SDS011;5722;42.620;23.374;2023-06-10T15:27:51;5.22;;;4.13;;
11334;SDS011;5722;42.620;23.374;2023-06-10T15:30:22;8.88;;;4.32;;
11334;SDS011;5722;42.620;23.374;2023-06-10T15:32:52;5.18;;;4.68;;
11334;SDS011;5722;42.620;23.374;2023-06-10T15:35:48;5.90;;;4.28;;
11334;SDS011;5722;42.620;23.374;2023-06-10T15:38:43;7.93;;;4.28;;
11334;SDS011;5722;42.620;23.374;2023-06-10T15:44:07;6.75;;;4.10;;
11334;SDS011;5722;42.620;23.374;2023-06-10T15:46:50;5.45;;;4.03;;
11334;SDS011;5722;42.620;23.374;2023-06-10T15:49:39;6.25;;;4.00;;
11334;SDS011;5722;42.620;23.374;2023-06-10T15:52:11;5.57;;;3.90;;
11334;SDS011;5722;42.620;23.374;2023-06-10T15:58:13;3.97;;;3.60;;
11334;SDS011;5722;42.620;23.374;2023-06-10T16:00:51;4.55;;;3.85;;
11334;SDS011;5722;42.620;23.374;2023-06-10T16:03:21;5.65;;;3.35;;
11334;SDS011;5722;42.620;23.374;2023-06-10T16:06:17;3.67;;;3.28;;
11334;SDS011;5722;42.620;23.374;2023-06-10T16:12:06;3.83;;;3.53;;
11334;SDS011;5722;42.620;23.374;2023-06-10T16:15:01;5.35;;;3.80;;
11334;SDS011;5722;42.620;23.374;2023-06-10T16:50:27;5.13;;;3.40;;
11334;SDS011;5722;42.620;23.374;2023-06-10T16:53:07;4.78;;;3.63;;
11334;SDS011;5722;42.620;23.374;2023-06-10T16:58:44;4.88;;;3.20;;
11334;SDS011;5722;42.620;23.374;2023-06-10T17:01:47;4.63;;;3.70;;
11334;SDS011;5722;42.620;23.374;2023-06-10T17:04:31;5.55;;;3.58;;
11334;SDS011;5722;42.620;23.374;2023-06-10T17:10:23;4.88;;;3.65;;
11334;SDS011;5722;42.620;23.374;2023-06-10T17:13:08;6.75;;;5.63;;
11334;SDS011;5722;42.620;23.374;2023-06-10T17:15:50;4.38;;;3.88;;
11334;SDS011;5722;42.620;23.374;2023-06-10T17:18:32;4.55;;;3.50;;
11334;SDS011;5722;42.620;23.374;2023-06-10T17:21:22;5.03;;;3.80;;
11334;SDS011;5722;42.620;23.374;2023-06-10T17:24:03;4.68;;;3.50;;
11334;SDS011;5722;42.620;23.374;2023-06-10T17:41:32;5.00;;;3.53;;
11334;SDS011;5722;42.620;23.374;2023-06-10T17:44:22;5.30;;;3.85;;
11334;SDS011;5722;42.620;23.374;2023-06-10T17:47:08;6.13;;;4.20;;
11334;SDS011;5722;42.620;23.374;2023-06-10T17:50:01;4.63;;;4.10;;
11334;SDS011;5722;42.620;23.374;2023-06-10T17:52:32;6.13;;;3.95;;
11334;SDS011;5722;42.620;23.374;2023-06-10T17:55:16;4.57;;;3.72;;
11334;SDS011;5722;42.620;23.374;2023-06-10T18:51:18;6.57;;;4.95;;
11334;SDS011;5722;42.620;23.374;2023-06-10T18:53:50;6.85;;;4.65;;
11334;SDS011;5722;42.620;23.374;2023-06-10T18:59:32;6.18;;;5.00;;
11334;SDS011;5722;42.620;23.374;2023-06-10T20:47:43;7.32;;;5.32;;
11334;SDS011;5722;42.620;23.374;2023-06-10T20:50:17;7.88;;;5.63;;
11334;SDS011;5722;42.620;23.374;2023-06-10T20:53:00;7.22;;;5.50;;
11334;SDS011;5722;42.620;23.374;2023-06-10T20:55:36;8.02;;;5.65;;
11334;SDS011;5722;42.620;23.374;2023-06-10T20:58:13;6.40;;;5.40;;
11334;SDS011;5722;42.620;23.374;2023-06-10T21:01:20;7.38;;;5.78;;
11334;SDS011;5722;42.620;23.374;2023-06-10T21:03:58;11.27;;;5.78;;
11334;SDS011;5722;42.620;23.374;2023-06-10T21:06:28;10.40;;;6.43;;
11334;SDS011;5722;42.620;23.374;2023-06-10T21:09:13;8.35;;;5.82;;
11334;SDS011;5722;42.620;23.374;2023-06-10T21:12:03;7.10;;;5.60;;
11334;SDS011;5722;42.620;23.374;2023-06-10T21:14:57;9.90;;;5.85;;
11334;SDS011;5722;42.620;23.374;2023-06-10T21:17:29;7.40;;;6.03;;
11334;SDS011;5722;42.620;23.374;2023-06-10T21:28:54;7.43;;;5.68;;
11334;SDS011;5722;42.620;23.374;2023-06-10T21:31:34;8.63;;;5.18;;
11334;SDS011;5722;42.620;23.374;2023-06-10T21:34:05;9.77;;;5.78;;
11334;SDS011;5722;42.620;23.374;2023-06-10T21:54:17;11.70;;;5.60;;
11334;SDS011;5722;42.620;23.374;2023-06-10T21:56:56;6.95;;;5.10;;
11334;SDS011;5722;42.620;23.374;2023-06-10T22:03:06;5.82;;;5.15;;
11334;SDS011;5722;42.620;23.374;2023-06-10T22:08:54;5.78;;;5.18;;
11334;SDS011;5722;42.620;23.374;2023-06-10T22:23:52;8.45;;;5.18;;
11334;SDS011;5722;42.620;23.374;2023-06-10T22:26:21;5.93;;;4.63;;
11334;SDS011;5722;42.620;23.374;2023-06-10T23:03:10;7.70;;;4.65;;
11334;SDS011;5722;42.620;23.374;2023-06-10T23:08:42;5.85;;;4.97;;
11334;SDS011;5722;42.620;23.374;2023-06-10T23:26:42;5.10;;;4.70;;
11334;SDS011;5722;42.620;23.374;2023-06-10T23:29:33;5.85;;;4.72;;
11334;SDS011;5722;42.620;23.374;2023-06-10T23:32:09;8.85;;;5.35;;
11334;SDS011;5722;42.620;23.374;2023-06-10T23:34:38;6.63;;;5.00;;
11334;SDS011;5722;42.620;23.374;2023-06-10T23:37:06;6.72;;;4.93;;
11334;SDS011;5722;42.620;23.374;2023-06-10T23:39:37;10.40;;;5.10;;
11334;SDS011;5722;42.620;23.374;2023-06-10T23:42:12;7.43;;;5.05;;
11334;SDS011;5722;42.620;23.374;2023-06-10T23:44:41;7.82;;;5.40;;
11334;SDS011;5722;42.620;23.374;2023-06-10T23:47:09;6.20;;;5.32;;
11334;SDS011;5722;42.620;23.374;2023-06-10T23:52:24;5.82;;;5.15;;
